Terminal Aerodrome Forecast
Issued by NWS

Home | Current Version | Previous Version | Text Only | Print | Product List | Glossary On
Versions: 1 2 3 4 5 6 7 8 9 10 11 12 13 14 15 16 17 18 19 20 21 22
000
FTUS43 KMQT 041120
TAFCMX
TAF
KCMX 041120Z 0412/0512 10003KT P6SM SKC
     FM041700 10007KT P6SM SKC
     FM050700 13003KT 6SM BR FEW200
     FM051000 14003KT 5SM BR FEW200=

USA.gov is the U.S. government's official web portal to all federal, state and local government web resources and services.